TimeAST,TemperatureF,Dew PointF,Humidity,Sea Level PressureIn,VisibilityMPH,Wind Direction,Wind SpeedMPH,Gust SpeedMPH,PrecipitationIn,Events,Conditions,WindDirDegrees,DateUTC
12:00 AM,59.2,56.8,92,-9999,-9999.0,SSW,12.7,-,N/A,,Unknown,210,2012-11-14 04:00:00
1:00 AM,55.8,53.1,91,-9999,-9999.0,NW,13.8,-,N/A,,Unknown,310,2012-11-14 05:00:00
2:00 AM,50.4,47.7,90,-9999,-9999.0,North,17.3,-,N/A,,Unknown,360,2012-11-14 06:00:00
3:00 AM,47.1,45.1,93,-9999,-9999.0,North,17.3,-,N/A,,Unknown,350,2012-11-14 07:00:00
4:00 AM,45.3,43.5,93,-9999,-9999.0,North,16.1,-,N/A,,Unknown,360,2012-11-14 08:00:00
5:00 AM,45.3,42.8,91,-9999,-9999.0,North,15.0,-,N/A,,Unknown,350,2012-11-14 09:00:00
6:00 AM,44.6,42.4,92,-9999,-9999.0,North,15.0,-,N/A,,Unknown,360,2012-11-14 10:00:00
7:00 AM,44.6,42.3,91,-9999,-9999.0,North,11.5,18.4,N/A,,Unknown,10,2012-11-14 11:00:00
8:00 AM,44.2,41.9,91,-9999,-9999.0,North,15.0,-,N/A,,Unknown,10,2012-11-14 12:00:00
9:00 AM,43.9,42.1,93,-9999,-9999.0,North,12.7,-,N/A,,Unknown,360,2012-11-14 13:00:00
10:00 AM,43.7,42.1,94,-9999,-9999.0,North,16.1,-,N/A,,Unknown,360,2012-11-14 14:00:00
11:00 AM,43.9,41.9,93,-9999,-9999.0,NNE,12.7,-,N/A,,Unknown,30,2012-11-14 15:00:00
12:00 PM,43.5,41.4,92,-9999,-9999.0,North,16.1,-,N/A,,Unknown,360,2012-11-14 16:00:00
1:00 PM,43.2,41.4,93,-9999,-9999.0,North,19.6,-,N/A,,Unknown,360,2012-11-14 17:00:00
2:00 PM,42.6,40.8,93,-9999,-9999.0,North,15.0,-,N/A,,Unknown,360,2012-11-14 18:00:00
3:00 PM,43.0,40.6,91,-9999,-9999.0,North,17.3,-,N/A,,Unknown,360,2012-11-14 19:00:00
4:00 PM,43.0,40.8,92,-9999,-9999.0,North,16.1,-,N/A,,Unknown,360,2012-11-14 20:00:00
5:00 PM,43.0,40.6,91,-9999,-9999.0,North,16.1,24.2,N/A,,Unknown,10,2012-11-14 21:00:00
6:00 PM,42.4,40.3,92,-9999,-9999.0,North,16.1,-,N/A,,Unknown,360,2012-11-14 22:00:00
7:00 PM,41.9,39.0,90,-9999,-9999.0,NNE,17.3,-,N/A,,Unknown,20,2012-11-14 23:00:00
8:00 PM,41.5,38.5,89,-9999,-9999.0,North,15.0,-,N/A,,Unknown,10,2012-11-15 00:00:00
9:00 PM,41.0,38.3,90,-9999,-9999.0,North,17.3,-,N/A,,Unknown,360,2012-11-15 01:00:00
10:00 PM,41.0,37.9,89,-9999,-9999.0,North,17.3,-,N/A,,Unknown,360,2012-11-15 02:00:00
11:00 PM,41.5,38.3,88,-9999,-9999.0,North,16.1,-,N/A,,Unknown,360,2012-11-15 03:00:00